Time;durP1;ratioP1;P1;durP2;ratioP2;P2;SDS_P1;SDS_P2;PMS_P1;PMS_P2;Temp;Humidity;BMP_temperature;BMP_pressure;BME280_temperature;BME280_humidity;BME280_pressure;Samples;Min_cycle;Max_cycle;Signal;HPM_P1;HPM_P2
2023/12/09 00:01:43;;;;;;;15.37;4.50;;;;;;;;;;2612196;54;20604;-72
2023/12/09 00:04:09;;;;;;;13.30;4.50;;;;;;;;;;2612639;39;21068;-72
2023/12/09 00:06:35;;;;;;;10.20;5.30;;;;;;;;;;2612860;54;20409;-78
2023/12/09 00:09:02;;;;;;;11.43;4.30;;;;;;;;;;2612843;54;20473;-78
2023/12/09 00:11:28;;;;;;;9.30;3.57;;;;;;;;;;2613450;47;20447;-79
2023/12/09 00:13:54;;;;;;;14.70;4.73;;;;;;;;;;2613834;39;20834;-79
2023/12/09 00:16:20;;;;;;;10.90;5.00;;;;;;;;;;2612696;54;21227;-76
2023/12/09 00:18:46;;;;;;;7.73;3.93;;;;;;;;;;2613539;39;20885;-76
2023/12/09 00:21:12;;;;;;;9.80;4.80;;;;;;;;;;2612528;54;20397;-76
2023/12/09 00:23:38;;;;;;;10.80;4.33;;;;;;;;;;2612540;46;20564;-76
2023/12/09 00:26:05;;;;;;;6.63;4.50;;;;;;;;;;2612877;54;20417;-77
2023/12/09 00:28:31;;;;;;;13.20;4.77;;;;;;;;;;2613085;39;20807;-75
2023/12/09 00:30:57;;;;;;;4.80;3.30;;;;;;;;;;2613320;54;20407;-75
2023/12/09 00:33:23;;;;;;;12.97;5.20;;;;;;;;;;2613773;54;20532;-76
2023/12/09 00:35:49;;;;;;;9.37;3.90;;;;;;;;;;2612911;54;20488;-74
2023/12/09 00:38:15;;;;;;;7.53;4.40;;;;;;;;;;2612744;54;20414;-75
2023/12/09 00:40:41;;;;;;;11.27;3.83;;;;;;;;;;2612935;47;20451;-76
2023/12/09 00:43:07;;;;;;;10.37;4.67;;;;;;;;;;2613221;54;20432;-76
2023/12/09 00:45:33;;;;;;;10.17;4.10;;;;;;;;;;2613411;54;20405;-76
2023/12/09 00:47:59;;;;;;;10.67;3.73;;;;;;;;;;2613814;54;20949;-76
2023/12/09 00:50:26;;;;;;;8.53;4.10;;;;;;;;;;2613904;54;20444;-75
2023/12/09 00:52:52;;;;;;;11.13;4.97;;;;;;;;;;2612218;54;20437;-75
2023/12/09 00:55:18;;;;;;;16.03;4.47;;;;;;;;;;2614209;39;20802;-75
2023/12/09 00:57:44;;;;;;;10.37;4.70;;;;;;;;;;2613742;54;20453;-75
2023/12/09 01:00:10;;;;;;;8.37;4.53;;;;;;;;;;2613725;54;20415;-77
2023/12/09 01:02:38;;;;;;;9.20;3.80;;;;;;;;;;2613354;54;20437;-77
2023/12/09 01:05:05;;;;;;;11.60;4.30;;;;;;;;;;2613460;54;20951;-75
2023/12/09 01:07:31;;;;;;;11.10;4.90;;;;;;;;;;2613590;54;20428;-77
2023/12/09 01:09:57;;;;;;;10.87;5.00;;;;;;;;;;2614066;54;20430;-77
2023/12/09 01:12:23;;;;;;;10.00;4.13;;;;;;;;;;2613678;39;20957;-76
2023/12/09 01:14:49;;;;;;;6.87;3.90;;;;;;;;;;2614058;54;20416;-77
2023/12/09 01:17:15;;;;;;;6.30;3.00;;;;;;;;;;2615008;54;20458;-85
2023/12/09 01:19:41;;;;;;;12.93;3.80;;;;;;;;;;2616195;47;20406;-86
2023/12/09 01:22:07;;;;;;;8.83;3.83;;;;;;;;;;2615642;54;20554;-83
2023/12/09 01:24:35;;;;;;;11.90;4.23;;;;;;;;;;2616132;39;20760;-82
2023/12/09 01:27:01;;;;;;;8.53;4.27;;;;;;;;;;2613432;54;20947;-73
2023/12/09 01:29:27;;;;;;;9.13;4.20;;;;;;;;;;2612423;47;21485;-73
2023/12/09 01:31:53;;;;;;;8.00;4.60;;;;;;;;;;2612326;54;20429;-73
2023/12/09 01:34:19;;;;;;;11.73;4.37;;;;;;;;;;2612938;47;20447;-75
2023/12/09 01:36:45;;;;;;;21.60;5.63;;;;;;;;;;2612712;39;21054;-73
2023/12/09 01:39:11;;;;;;;14.10;5.00;;;;;;;;;;2612883;54;20388;-72
2023/12/09 01:41:37;;;;;;;11.83;4.43;;;;;;;;;;2612878;54;21071;-73
2023/12/09 01:44:04;;;;;;;12.47;4.43;;;;;;;;;;2613333;54;20426;-74
2023/12/09 01:46:30;;;;;;;9.73;2.50;;;;;;;;;;2613292;54;20426;-72
2023/12/09 01:48:56;;;;;;;9.20;2.97;;;;;;;;;;2613890;54;20442;-74
2023/12/09 01:51:23;;;;;;;16.60;4.60;;;;;;;;;;2611412;47;21034;-73
2023/12/09 01:53:49;;;;;;;8.20;3.73;;;;;;;;;;2613006;39;20969;-73
2023/12/09 01:56:16;;;;;;;8.93;4.10;;;;;;;;;;2612698;54;20994;-73
2023/12/09 01:58:43;;;;;;;12.83;5.00;;;;;;;;;;2613187;54;20422;-73
2023/12/09 02:01:09;;;;;;;10.83;5.03;;;;;;;;;;2613450;39;20463;-72
2023/12/09 02:03:35;;;;;;;9.20;4.07;;;;;;;;;;2612184;54;21038;-73
2023/12/09 02:06:01;;;;;;;15.97;4.50;;;;;;;;;;2612237;54;21048;-73
2023/12/09 02:08:27;;;;;;;10.30;5.10;;;;;;;;;;2613147;47;20437;-74
2023/12/09 02:11:06;;;;;;;9.40;3.87;;;;;;;;;;2613435;39;20932;-73
2023/12/09 02:14:03;;;;;;;18.30;5.27;;;;;;;;;;2612080;54;21109;-72
2023/12/09 02:16:35;;;;;;;10.80;4.57;;;;;;;;;;2611589;39;20819;-73
2023/12/09 02:19:05;;;;;;;9.63;4.40;;;;;;;;;;2612000;54;20458;-71
2023/12/09 02:21:51;;;;;;;9.97;4.90;;;;;;;;;;2609901;54;20507;-72
2023/12/09 02:24:17;;;;;;;15.07;3.90;;;;;;;;;;2611491;54;20435;-74
2023/12/09 02:26:43;;;;;;;12.13;3.60;;;;;;;;;;2612252;54;20397;-84
2023/12/09 02:29:10;;;;;;;9.90;4.30;;;;;;;;;;2613115;54;20421;-84
2023/12/09 02:31:38;;;;;;;10.77;3.67;;;;;;;;;;2613509;46;21048;-84
2023/12/09 02:34:05;;;;;;;17.57;4.93;;;;;;;;;;2614007;54;21013;-85
2023/12/09 02:36:31;;;;;;;13.23;3.80;;;;;;;;;;2613408;54;20504;-85
2023/12/09 02:38:58;;;;;;;13.90;4.30;;;;;;;;;;2613932;54;20414;-85
2023/12/09 02:41:24;;;;;;;11.20;3.50;;;;;;;;;;2614456;54;20445;-85
2023/12/09 02:43:51;;;;;;;12.53;4.17;;;;;;;;;;2613794;54;20427;-84
2023/12/09 02:46:18;;;;;;;7.53;3.27;;;;;;;;;;2614237;54;20472;-84
2023/12/09 02:48:44;;;;;;;8.63;4.37;;;;;;;;;;2614480;54;20390;-85
2023/12/09 02:51:12;;;;;;;12.83;5.80;;;;;;;;;;2614531;39;20889;-83
2023/12/09 02:53:38;;;;;;;8.50;4.40;;;;;;;;;;2615997;39;20785;-86
2023/12/09 02:56:04;;;;;;;18.10;4.40;;;;;;;;;;2614885;54;20456;-83
2023/12/09 02:58:30;;;;;;;13.77;3.43;;;;;;;;;;2615260;46;20440;-84
2023/12/09 03:00:56;;;;;;;7.40;3.87;;;;;;;;;;2615693;54;20425;-85
2023/12/09 03:03:22;;;;;;;9.87;5.13;;;;;;;;;;2615118;54;20420;-84
2023/12/09 03:05:48;;;;;;;14.37;5.13;;;;;;;;;;2615897;39;20783;-84
2023/12/09 03:08:14;;;;;;;16.33;4.20;;;;;;;;;;2614936;54;20577;-83
2023/12/09 03:10:40;;;;;;;6.67;3.87;;;;;;;;;;2614723;54;20433;-85
2023/12/09 03:13:06;;;;;;;6.27;3.97;;;;;;;;;;2615214;54;20526;-84
2023/12/09 03:15:32;;;;;;;12.10;3.50;;;;;;;;;;2614984;54;20413;-83
2023/12/09 03:17:58;;;;;;;13.80;4.50;;;;;;;;;;2614755;39;20848;-83
2023/12/09 03:20:25;;;;;;;17.87;4.33;;;;;;;;;;2613523;47;20432;-84
2023/12/09 03:22:51;;;;;;;14.90;4.47;;;;;;;;;;2613948;47;20447;-85
2023/12/09 03:25:17;;;;;;;13.70;4.63;;;;;;;;;;2613816;47;20447;-86
2023/12/09 03:27:43;;;;;;;13.60;4.10;;;;;;;;;;2614443;54;20410;-85
2023/12/09 03:30:09;;;;;;;7.90;3.93;;;;;;;;;;2613763;47;20525;-85
2023/12/09 03:32:35;;;;;;;9.03;4.07;;;;;;;;;;2613926;54;20547;-83
2023/12/09 03:35:01;;;;;;;7.30;3.83;;;;;;;;;;2614367;47;20536;-84
2023/12/09 03:37:27;;;;;;;8.67;3.77;;;;;;;;;;2612291;54;20438;-80
2023/12/09 03:39:53;;;;;;;10.83;5.10;;;;;;;;;;2611678;54;20479;-79
2023/12/09 03:42:19;;;;;;;7.07;4.03;;;;;;;;;;2613210;47;20893;-80
2023/12/09 03:44:45;;;;;;;10.20;4.10;;;;;;;;;;2613162;54;20399;-78
2023/12/09 03:47:11;;;;;;;12.20;4.17;;;;;;;;;;2611832;51;20452;-73
2023/12/09 03:49:37;;;;;;;11.43;4.90;;;;;;;;;;2610888;54;20434;-74
2023/12/09 03:52:03;;;;;;;6.83;4.03;;;;;;;;;;2611504;54;20476;-75
2023/12/09 03:54:29;;;;;;;5.90;2.50;;;;;;;;;;2611957;54;20423;-75
2023/12/09 03:56:55;;;;;;;8.57;3.90;;;;;;;;;;2611069;47;20505;-76
2023/12/09 03:59:21;;;;;;;6.87;3.73;;;;;;;;;;2611171;39;20479;-75
2023/12/09 04:01:48;;;;;;;11.50;4.30;;;;;;;;;;2609190;54;21105;-74
2023/12/09 04:04:14;;;;;;;11.50;4.10;;;;;;;;;;2610004;39;20735;-74
2023/12/09 04:06:41;;;;;;;18.23;5.00;;;;;;;;;;2609080;51;20417;-75
2023/12/09 04:09:09;;;;;;;9.27;3.50;;;;;;;;;;2610347;39;20826;-74
2023/12/09 04:11:35;;;;;;;14.73;5.50;;;;;;;;;;2609675;39;21110;-75
2023/12/09 04:14:01;;;;;;;17.43;5.27;;;;;;;;;;2610523;39;20826;-75
2023/12/09 04:16:27;;;;;;;11.37;4.30;;;;;;;;;;2608077;54;20401;-75
2023/12/09 04:18:53;;;;;;;8.70;3.77;;;;;;;;;;2608760;54;20445;-75
2023/12/09 04:21:19;;;;;;;16.13;4.40;;;;;;;;;;2609807;54;20513;-74
2023/12/09 04:23:45;;;;;;;10.43;3.80;;;;;;;;;;2609987;54;20445;-74
2023/12/09 04:26:11;;;;;;;12.73;4.30;;;;;;;;;;2610298;39;20803;-74
2023/12/09 04:28:37;;;;;;;9.77;4.10;;;;;;;;;;2608917;54;21962;-73
2023/12/09 04:31:03;;;;;;;8.33;3.83;;;;;;;;;;2609953;54;20428;-74
2023/12/09 04:33:29;;;;;;;13.73;4.40;;;;;;;;;;2609231;54;20422;-74
2023/12/09 04:35:55;;;;;;;11.20;3.40;;;;;;;;;;2610346;39;20856;-76
2023/12/09 04:38:22;;;;;;;11.10;3.73;;;;;;;;;;2609621;54;20449;-73
2023/12/09 04:40:48;;;;;;;10.53;4.30;;;;;;;;;;2608944;47;20465;-75
2023/12/09 04:43:14;;;;;;;8.93;4.10;;;;;;;;;;2610267;39;20499;-75
2023/12/09 04:45:40;;;;;;;9.30;5.43;;;;;;;;;;2608803;54;20934;-79
2023/12/09 04:48:06;;;;;;;10.23;3.70;;;;;;;;;;2610367;54;20416;-79
2023/12/09 04:50:32;;;;;;;10.80;4.27;;;;;;;;;;2610857;54;20417;-79
2023/12/09 04:52:58;;;;;;;11.10;4.17;;;;;;;;;;2611338;54;20433;-80
2023/12/09 04:55:24;;;;;;;8.13;4.43;;;;;;;;;;2611878;46;20423;-79
2023/12/09 04:57:50;;;;;;;6.57;3.70;;;;;;;;;;2613694;47;20451;-79
2023/12/09 05:00:16;;;;;;;13.83;5.00;;;;;;;;;;2610819;54;20441;-79
2023/12/09 05:02:42;;;;;;;11.67;3.77;;;;;;;;;;2611253;54;20537;-77
2023/12/09 05:05:08;;;;;;;8.50;3.87;;;;;;;;;;2613039;47;20444;-77
2023/12/09 05:07:34;;;;;;;10.50;4.47;;;;;;;;;;2610773;54;21435;-78
2023/12/09 05:10:00;;;;;;;11.57;4.83;;;;;;;;;;2610968;54;22172;-78
2023/12/09 05:12:26;;;;;;;9.47;4.30;;;;;;;;;;2611192;54;20441;-77
2023/12/09 05:14:53;;;;;;;5.77;3.77;;;;;;;;;;2611014;54;20430;-79
2023/12/09 05:17:19;;;;;;;7.87;4.30;;;;;;;;;;2610829;54;20506;-77
2023/12/09 05:19:45;;;;;;;11.70;4.30;;;;;;;;;;2610631;46;20566;-77
2023/12/09 05:22:12;;;;;;;7.13;4.77;;;;;;;;;;2610184;47;20405;-77
2023/12/09 05:24:38;;;;;;;8.03;3.57;;;;;;;;;;2610277;54;21031;-79
2023/12/09 05:27:04;;;;;;;9.70;4.03;;;;;;;;;;2610694;54;20453;-78
2023/12/09 05:29:30;;;;;;;11.30;4.03;;;;;;;;;;2610293;47;20445;-78
2023/12/09 05:31:56;;;;;;;8.30;4.20;;;;;;;;;;2610548;54;20529;-78
2023/12/09 05:34:22;;;;;;;9.03;3.67;;;;;;;;;;2611743;54;20391;-78
2023/12/09 05:36:48;;;;;;;6.77;2.97;;;;;;;;;;2613032;54;20447;-78
2023/12/09 05:39:15;;;;;;;10.33;3.70;;;;;;;;;;2610644;54;20437;-77
2023/12/09 05:41:42;;;;;;;8.20;3.27;;;;;;;;;;2612826;54;20460;-78
2023/12/09 05:44:09;;;;;;;7.00;4.00;;;;;;;;;;2611916;39;20821;-79
2023/12/09 05:46:36;;;;;;;12.83;3.97;;;;;;;;;;2610614;39;20550;-79
2023/12/09 05:49:02;;;;;;;8.87;3.87;;;;;;;;;;2610184;46;20448;-78
2023/12/09 05:51:28;;;;;;;11.23;4.10;;;;;;;;;;2610535;47;20453;-79
2023/12/09 05:53:54;;;;;;;8.73;3.97;;;;;;;;;;2609225;54;20433;-78
2023/12/09 05:56:20;;;;;;;10.07;4.13;;;;;;;;;;2610202;54;20549;-77
2023/12/09 05:58:46;;;;;;;8.87;3.90;;;;;;;;;;2611781;54;20413;-76
2023/12/09 06:01:12;;;;;;;12.13;4.13;;;;;;;;;;2612325;46;20480;-76
2023/12/09 06:03:38;;;;;;;11.77;3.63;;;;;;;;;;2612218;47;20464;-76
2023/12/09 06:06:05;;;;;;;9.03;4.50;;;;;;;;;;2611463;54;20431;-79
2023/12/09 06:08:31;;;;;;;21.10;4.50;;;;;;;;;;2614176;39;20779;-79
2023/12/09 06:10:58;;;;;;;7.90;4.20;;;;;;;;;;2613283;54;20437;-78
2023/12/09 06:13:24;;;;;;;10.50;4.90;;;;;;;;;;2614242;39;20920;-78
2023/12/09 06:15:51;;;;;;;8.27;4.30;;;;;;;;;;2613488;54;21036;-78
2023/12/09 06:18:17;;;;;;;12.23;3.70;;;;;;;;;;2613257;54;21227;-77
2023/12/09 06:20:43;;;;;;;5.50;3.37;;;;;;;;;;2611221;47;20511;-78
2023/12/09 06:23:09;;;;;;;6.33;4.40;;;;;;;;;;2610050;54;20445;-78
2023/12/09 06:25:35;;;;;;;5.47;4.57;;;;;;;;;;2610463;47;20425;-78
2023/12/09 06:28:01;;;;;;;7.03;3.80;;;;;;;;;;2610135;54;20441;-79
2023/12/09 06:30:27;;;;;;;8.30;4.20;;;;;;;;;;2610267;54;20433;-77
2023/12/09 06:32:53;;;;;;;5.40;3.23;;;;;;;;;;2611264;54;20416;-78
2023/12/09 06:35:19;;;;;;;7.70;2.97;;;;;;;;;;2611732;54;20443;-79
2023/12/09 06:37:45;;;;;;;5.97;3.17;;;;;;;;;;2610519;54;20430;-78
2023/12/09 06:40:11;;;;;;;9.63;3.67;;;;;;;;;;2609876;54;20468;-76
2023/12/09 06:42:38;;;;;;;10.37;3.67;;;;;;;;;;2613312;54;20424;-78
2023/12/09 06:45:04;;;;;;;8.00;4.00;;;;;;;;;;2609792;54;20455;-79
2023/12/09 06:47:30;;;;;;;8.63;3.80;;;;;;;;;;2610711;54;20430;-78
2023/12/09 06:49:56;;;;;;;10.67;3.97;;;;;;;;;;2611029;54;20403;-78
2023/12/09 06:52:22;;;;;;;9.23;3.23;;;;;;;;;;2609845;39;20785;-77
2023/12/09 06:54:48;;;;;;;7.90;3.60;;;;;;;;;;2609588;39;20890;-78
2023/12/09 06:57:14;;;;;;;13.10;3.77;;;;;;;;;;2612627;54;20429;-79
2023/12/09 06:59:41;;;;;;;9.70;3.00;;;;;;;;;;2611677;54;20429;-78
2023/12/09 07:02:07;;;;;;;4.30;3.50;;;;;;;;;;2612569;39;20835;-78
2023/12/09 07:04:36;;;;;;;13.37;3.70;;;;;;;;;;2610756;54;20525;-79
2023/12/09 07:07:02;;;;;;;6.23;2.60;;;;;;;;;;2612698;54;20428;-73
2023/12/09 07:09:28;;;;;;;4.13;2.50;;;;;;;;;;2612652;39;21022;-73
2023/12/09 07:11:55;;;;;;;4.70;3.50;;;;;;;;;;2611740;54;20462;-73
2023/12/09 07:14:21;;;;;;;5.83;2.97;;;;;;;;;;2612592;54;20392;-73
2023/12/09 07:16:47;;;;;;;6.43;2.90;;;;;;;;;;2614090;54;20947;-86
2023/12/09 07:19:13;;;;;;;8.10;2.97;;;;;;;;;;2611867;39;20781;-82
2023/12/09 07:21:40;;;;;;;7.10;2.97;;;;;;;;;;2612978;54;20429;-85
2023/12/09 07:24:06;;;;;;;4.63;2.13;;;;;;;;;;2612693;54;20502;-85
2023/12/09 07:26:32;;;;;;;2.83;1.80;;;;;;;;;;2613247;54;20529;-85
2023/12/09 07:28:58;;;;;;;7.43;2.43;;;;;;;;;;2614908;54;20523;-86
2023/12/09 07:31:24;;;;;;;3.10;2.50;;;;;;;;;;2614829;54;20987;-86
2023/12/09 07:33:50;;;;;;;7.87;2.50;;;;;;;;;;2615433;54;20458;-86
2023/12/09 07:36:17;;;;;;;3.20;2.30;;;;;;;;;;2614521;54;20420;-85
2023/12/09 07:38:43;;;;;;;3.97;2.83;;;;;;;;;;2615390;54;20428;-85
2023/12/09 07:41:09;;;;;;;6.13;2.60;;;;;;;;;;2614933;54;20505;-85
2023/12/09 07:43:36;;;;;;;4.50;1.80;;;;;;;;;;2614961;54;20467;-85
2023/12/09 07:46:02;;;;;;;3.33;1.80;;;;;;;;;;2615233;46;20428;-86
2023/12/09 07:48:29;;;;;;;3.20;2.03;;;;;;;;;;2614771;54;20468;-88
2023/12/09 07:50:55;;;;;;;6.97;2.40;;;;;;;;;;2615990;54;20432;-87
2023/12/09 07:53:21;;;;;;;4.03;2.50;;;;;;;;;;2613735;54;20429;-87
2023/12/09 07:55:48;;;;;;;4.03;2.57;;;;;;;;;;2615655;39;20841;-86
2023/12/09 07:58:15;;;;;;;6.00;2.20;;;;;;;;;;2614026;47;20427;-88
2023/12/09 08:00:41;;;;;;;3.30;1.83;;;;;;;;;;2613604;54;20456;-85
2023/12/09 08:03:08;;;;;;;3.50;2.00;;;;;;;;;;2612647;54;20444;-85
2023/12/09 08:05:34;;;;;;;3.60;2.33;;;;;;;;;;2613732;54;20430;-86
2023/12/09 08:08:02;;;;;;;9.30;2.43;;;;;;;;;;2613727;50;20433;-84
2023/12/09 08:10:28;;;;;;;6.80;2.00;;;;;;;;;;2612459;54;20425;-84
2023/12/09 08:12:56;;;;;;;7.80;2.13;;;;;;;;;;2613412;54;20392;-86
2023/12/09 08:15:22;;;;;;;5.57;2.90;;;;;;;;;;2613985;54;20456;-75
2023/12/09 08:17:48;;;;;;;9.80;2.57;;;;;;;;;;2610571;47;20419;-77
2023/12/09 08:20:14;;;;;;;3.80;2.53;;;;;;;;;;2608801;54;20523;-75
2023/12/09 08:22:40;;;;;;;6.63;2.47;;;;;;;;;;2612177;39;20841;-77
2023/12/09 08:25:09;;;;;;;3.43;2.20;;;;;;;;;;2608711;54;20438;-74
2023/12/09 08:27:38;;;;;;;6.27;2.90;;;;;;;;;;2608641;54;20433;-77
2023/12/09 08:30:04;;;;;;;8.97;2.50;;;;;;;;;;2611407;54;20429;-76
2023/12/09 08:32:30;;;;;;;7.43;2.60;;;;;;;;;;2609888;39;20841;-78
2023/12/09 08:34:56;;;;;;;5.30;2.13;;;;;;;;;;2613208;54;20437;-76
2023/12/09 08:37:25;;;;;;;3.27;2.30;;;;;;;;;;2613394;54;20437;-76
2023/12/09 08:39:53;;;;;;;4.57;2.70;;;;;;;;;;2612287;54;20483;-75
2023/12/09 08:42:19;;;;;;;5.40;2.50;;;;;;;;;;2613288;54;20436;-75
2023/12/09 08:44:45;;;;;;;4.07;2.20;;;;;;;;;;2611855;54;20454;-76
2023/12/09 08:47:11;;;;;;;7.50;3.07;;;;;;;;;;2614618;39;20875;-78
2023/12/09 08:49:37;;;;;;;4.30;2.57;;;;;;;;;;2613357;54;21008;-77
2023/12/09 08:52:03;;;;;;;6.97;3.07;;;;;;;;;;2613607;54;20423;-78
2023/12/09 08:54:29;;;;;;;9.03;2.40;;;;;;;;;;2614676;39;20900;-77
2023/12/09 08:56:57;;;;;;;6.77;2.57;;;;;;;;;;2614098;54;20408;-77
2023/12/09 08:59:23;;;;;;;8.73;2.93;;;;;;;;;;2611465;54;20433;-80
2023/12/09 09:01:49;;;;;;;4.00;2.40;;;;;;;;;;2613596;54;20438;-74
2023/12/09 09:04:15;;;;;;;6.10;2.80;;;;;;;;;;2613780;39;20827;-76
2023/12/09 09:06:41;;;;;;;11.17;2.90;;;;;;;;;;2612380;47;20448;-75
2023/12/09 09:09:11;;;;;;;3.77;2.00;;;;;;;;;;2613249;54;20426;-75
2023/12/09 09:11:37;;;;;;;7.90;2.83;;;;;;;;;;2613190;54;20449;-74
2023/12/09 09:14:04;;;;;;;7.60;2.87;;;;;;;;;;2613202;39;20907;-75
2023/12/09 09:16:30;;;;;;;8.23;2.77;;;;;;;;;;2613314;54;20465;-75
2023/12/09 09:18:57;;;;;;;8.80;3.43;;;;;;;;;;2613165;54;20434;-75
2023/12/09 09:21:23;;;;;;;3.10;2.50;;;;;;;;;;2612523;39;20841;-76
2023/12/09 09:23:49;;;;;;;5.47;2.77;;;;;;;;;;2612721;47;20505;-75
2023/12/09 09:26:15;;;;;;;2.90;2.33;;;;;;;;;;2613342;54;20435;-72
2023/12/09 09:28:43;;;;;;;7.27;2.97;;;;;;;;;;2613553;31;20913;-71
2023/12/09 09:31:10;;;;;;;5.67;2.50;;;;;;;;;;2612434;54;20435;-70
2023/12/09 09:33:37;;;;;;;7.83;2.70;;;;;;;;;;2612250;47;20434;-71
2023/12/09 09:36:03;;;;;;;7.27;4.17;;;;;;;;;;2612911;46;20440;-76
2023/12/09 09:38:29;;;;;;;4.73;1.90;;;;;;;;;;2612568;54;20419;-79
2023/12/09 09:40:56;;;;;;;8.00;3.13;;;;;;;;;;2613456;47;20574;-76
2023/12/09 09:43:25;;;;;;;3.50;2.10;;;;;;;;;;2613042;54;20428;-75
2023/12/09 09:45:53;;;;;;;5.40;2.10;;;;;;;;;;2613044;54;20429;-76
2023/12/09 09:48:21;;;;;;;8.07;3.40;;;;;;;;;;2612828;54;20958;-76
2023/12/09 09:50:48;;;;;;;6.83;2.47;;;;;;;;;;2612454;39;20795;-77
2023/12/09 09:53:18;;;;;;;5.87;3.03;;;;;;;;;;2612775;47;20528;-74
2023/12/09 09:55:45;;;;;;;6.00;3.37;;;;;;;;;;2610295;54;20511;-76
2023/12/09 09:58:12;;;;;;;6.70;3.87;;;;;;;;;;2610123;47;20434;-75
2023/12/09 10:00:39;;;;;;;7.50;2.97;;;;;;;;;;2610915;54;20466;-75
2023/12/09 10:03:05;;;;;;;5.57;3.30;;;;;;;;;;2611351;54;20425;-76
2023/12/09 10:05:31;;;;;;;11.43;3.70;;;;;;;;;;2611255;47;20439;-76
2023/12/09 10:07:57;;;;;;;4.20;3.10;;;;;;;;;;2612119;54;20438;-75
2023/12/09 10:10:23;;;;;;;12.37;3.67;;;;;;;;;;2612025;39;21263;-76
2023/12/09 10:12:50;;;;;;;7.67;3.20;;;;;;;;;;2610745;54;20503;-76
2023/12/09 10:15:16;;;;;;;5.37;2.73;;;;;;;;;;2613127;54;20438;-76
2023/12/09 10:17:42;;;;;;;6.87;3.87;;;;;;;;;;2612704;47;20514;-75
2023/12/09 10:20:09;;;;;;;5.63;3.10;;;;;;;;;;2612139;54;20430;-75
2023/12/09 10:22:35;;;;;;;6.93;3.70;;;;;;;;;;2612759;54;20426;-76
2023/12/09 10:25:01;;;;;;;11.73;3.20;;;;;;;;;;2612330;54;20424;-78
2023/12/09 10:27:27;;;;;;;7.80;2.90;;;;;;;;;;2612700;39;20915;-76
2023/12/09 10:29:54;;;;;;;6.67;3.70;;;;;;;;;;2610358;54;20418;-76
2023/12/09 10:32:22;;;;;;;4.10;3.00;;;;;;;;;;2613443;54;21250;-75
2023/12/09 10:34:49;;;;;;;10.57;4.00;;;;;;;;;;2610581;54;20430;-76
2023/12/09 10:37:19;;;;;;;3.97;2.60;;;;;;;;;;2612267;54;21056;-79
2023/12/09 10:39:49;;;;;;;5.60;3.10;;;;;;;;;;2611107;54;20462;-81
2023/12/09 10:42:15;;;;;;;7.47;4.13;;;;;;;;;;2613883;39;20864;-82
2023/12/09 10:44:42;;;;;;;8.00;4.20;;;;;;;;;;2612054;47;20426;-80
2023/12/09 10:47:08;;;;;;;12.33;2.87;;;;;;;;;;2612818;54;20426;-73
2023/12/09 10:49:34;;;;;;;5.03;2.53;;;;;;;;;;2612895;54;21416;-72
2023/12/09 10:52:01;;;;;;;3.63;2.60;;;;;;;;;;2611769;47;20414;-72
2023/12/09 10:54:27;;;;;;;8.80;3.00;;;;;;;;;;2610131;54;20458;-73
2023/12/09 10:56:53;;;;;;;9.37;3.50;;;;;;;;;;2612603;54;20368;-73
2023/12/09 10:59:19;;;;;;;12.13;3.50;;;;;;;;;;2611715;54;20432;-72
2023/12/09 11:01:46;;;;;;;12.70;3.80;;;;;;;;;;2612757;54;20432;-72
2023/12/09 11:04:13;;;;;;;4.17;2.70;;;;;;;;;;2611861;54;20490;-73
2023/12/09 11:06:39;;;;;;;11.57;3.73;;;;;;;;;;2612366;54;20422;-72
2023/12/09 11:09:06;;;;;;;8.83;4.27;;;;;;;;;;2612104;39;20828;-72
2023/12/09 11:11:32;;;;;;;7.33;3.47;;;;;;;;;;2612060;54;20479;-71
2023/12/09 11:13:58;;;;;;;5.70;2.53;;;;;;;;;;2611681;47;20510;-71
2023/12/09 11:16:27;;;;;;;9.80;3.40;;;;;;;;;;2612051;54;20403;-71
2023/12/09 11:18:57;;;;;;;7.07;2.90;;;;;;;;;;2611875;54;20422;-72
2023/12/09 11:21:27;;;;;;;10.03;4.03;;;;;;;;;;2611904;54;20445;-72
2023/12/09 11:23:54;;;;;;;6.90;3.20;;;;;;;;;;2612506;47;20456;-72
2023/12/09 11:26:27;;;;;;;9.20;3.20;;;;;;;;;;2613022;47;20444;-72
2023/12/09 11:28:58;;;;;;;4.50;2.73;;;;;;;;;;2611909;54;20400;-72
2023/12/09 11:31:31;;;;;;;7.57;2.93;;;;;;;;;;2612459;54;20448;-71
2023/12/09 11:33:57;;;;;;;6.40;2.77;;;;;;;;;;2612807;31;20868;-72
2023/12/09 11:36:24;;;;;;;8.60;3.17;;;;;;;;;;2612090;54;21763;-71
2023/12/09 11:38:50;;;;;;;9.37;3.40;;;;;;;;;;2612429;54;20465;-72
2023/12/09 11:41:17;;;;;;;7.40;3.67;;;;;;;;;;2612281;54;20508;-73
2023/12/09 11:43:43;;;;;;;7.23;2.80;;;;;;;;;;2612440;54;20411;-70
2023/12/09 11:46:09;;;;;;;6.27;3.83;;;;;;;;;;2612559;54;20430;-85
2023/12/09 11:48:36;;;;;;;10.00;3.20;;;;;;;;;;2615539;39;20724;-86
2023/12/09 11:51:05;;;;;;;7.33;3.40;;;;;;;;;;2615179;54;20427;-84
2023/12/09 11:53:31;;;;;;;7.03;3.90;;;;;;;;;;2615376;39;20837;-85
2023/12/09 11:55:57;;;;;;;5.90;2.90;;;;;;;;;;2618806;54;20397;-85
2023/12/09 11:58:23;;;;;;;4.87;2.90;;;;;;;;;;2613416;54;20423;-85
2023/12/09 12:00:50;;;;;;;5.77;2.63;;;;;;;;;;2613889;54;20431;-86
2023/12/09 12:03:16;;;;;;;5.50;3.27;;;;;;;;;;2614477;39;20787;-85
2023/12/09 12:05:42;;;;;;;5.60;4.00;;;;;;;;;;2614238;54;20417;-84
2023/12/09 12:08:15;;;;;;;12.07;4.00;;;;;;;;;;2613890;54;20444;-82
2023/12/09 12:10:41;;;;;;;11.10;2.70;;;;;;;;;;2614393;39;20873;-83
2023/12/09 12:13:07;;;;;;;5.83;3.20;;;;;;;;;;2614037;47;20470;-84
2023/12/09 12:15:35;;;;;;;7.00;3.00;;;;;;;;;;2615264;39;20804;-82
2023/12/09 12:18:01;;;;;;;10.20;3.60;;;;;;;;;;2617903;54;20441;-85
2023/12/09 12:20:27;;;;;;;7.50;3.20;;;;;;;;;;2615826;54;20399;-84
2023/12/09 12:22:53;;;;;;;7.00;3.50;;;;;;;;;;2615221;54;20919;-85
2023/12/09 12:25:19;;;;;;;11.50;3.10;;;;;;;;;;2614261;54;21012;-83
2023/12/09 12:27:45;;;;;;;8.63;3.07;;;;;;;;;;2615359;54;20415;-84
2023/12/09 12:30:13;;;;;;;3.57;2.37;;;;;;;;;;2616580;39;20998;-83
2023/12/09 12:32:39;;;;;;;10.77;2.87;;;;;;;;;;2613955;54;20421;-84
2023/12/09 12:35:08;;;;;;;7.07;3.57;;;;;;;;;;2614803;54;20441;-85
2023/12/09 12:37:34;;;;;;;7.23;3.87;;;;;;;;;;2615140;54;20430;-82
2023/12/09 12:40:01;;;;;;;13.50;3.63;;;;;;;;;;2614876;54;20430;-84
2023/12/09 12:42:27;;;;;;;11.60;4.53;;;;;;;;;;2615264;47;20411;-83
2023/12/09 12:44:53;;;;;;;6.50;3.10;;;;;;;;;;2615454;47;20438;-82
2023/12/09 12:47:19;;;;;;;10.20;3.20;;;;;;;;;;2613553;54;20430;-85
2023/12/09 12:49:45;;;;;;;7.10;3.60;;;;;;;;;;2614160;54;20457;-82
2023/12/09 12:52:11;;;;;;;9.63;3.70;;;;;;;;;;2613688;47;20442;-87
2023/12/09 12:54:38;;;;;;;5.80;2.37;;;;;;;;;;2613486;54;20431;-86
2023/12/09 12:57:04;;;;;;;14.07;3.60;;;;;;;;;;2611536;54;20434;-77
2023/12/09 12:59:30;;;;;;;4.30;2.57;;;;;;;;;;2610800;31;20901;-74
2023/12/09 13:01:59;;;;;;;7.60;3.63;;;;;;;;;;2612332;54;20509;-75
2023/12/09 13:04:25;;;;;;;8.10;2.93;;;;;;;;;;2611557;47;20508;-76
2023/12/09 13:06:51;;;;;;;5.00;2.40;;;;;;;;;;2611155;47;20418;-73
2023/12/09 13:09:17;;;;;;;5.57;3.33;;;;;;;;;;2612284;54;20540;-74
2023/12/09 13:11:43;;;;;;;3.53;2.70;;;;;;;;;;2611319;39;20716;-76
2023/12/09 13:14:09;;;;;;;27.43;3.87;;;;;;;;;;2610178;39;20826;-73
2023/12/09 13:16:37;;;;;;;7.73;3.43;;;;;;;;;;2610979;54;20423;-73
2023/12/09 13:19:03;;;;;;;6.10;3.70;;;;;;;;;;2612271;54;20398;-73
2023/12/09 13:21:29;;;;;;;5.50;2.93;;;;;;;;;;2611269;54;20630;-75
2023/12/09 13:23:55;;;;;;;3.67;2.80;;;;;;;;;;2608311;47;20509;-73
2023/12/09 13:26:21;;;;;;;5.97;2.97;;;;;;;;;;2610253;54;20411;-71
2023/12/09 13:28:47;;;;;;;7.40;3.23;;;;;;;;;;2610643;54;20886;-73
2023/12/09 13:31:15;;;;;;;8.23;3.33;;;;;;;;;;2610380;47;20433;-73
2023/12/09 13:33:41;;;;;;;7.80;2.87;;;;;;;;;;2610540;54;20571;-72
2023/12/09 13:36:07;;;;;;;4.50;2.77;;;;;;;;;;2610528;46;20424;-72
2023/12/09 13:38:33;;;;;;;4.83;3.20;;;;;;;;;;2611966;54;20433;-73
2023/12/09 13:40:59;;;;;;;7.70;2.77;;;;;;;;;;2612960;54;20502;-72
2023/12/09 13:43:25;;;;;;;14.30;3.00;;;;;;;;;;2612597;47;20441;-73
2023/12/09 13:45:51;;;;;;;5.07;4.33;;;;;;;;;;2612913;54;20435;-74
2023/12/09 13:48:17;;;;;;;7.33;3.43;;;;;;;;;;2613376;54;20422;-71
2023/12/09 13:50:43;;;;;;;3.80;2.67;;;;;;;;;;2612797;54;20433;-72
2023/12/09 13:53:09;;;;;;;8.97;3.83;;;;;;;;;;2611023;54;20466;-75
2023/12/09 13:55:35;;;;;;;5.87;3.30;;;;;;;;;;2610395;54;20442;-73
2023/12/09 13:58:02;;;;;;;8.17;5.90;;;;;;;;;;2609520;39;22377;-71
2023/12/09 14:00:29;;;;;;;5.47;3.60;;;;;;;;;;2609868;54;20434;-71
2023/12/09 14:02:56;;;;;;;5.93;2.73;;;;;;;;;;2609522;54;20426;-71
2023/12/09 14:05:22;;;;;;;6.70;3.43;;;;;;;;;;2610972;39;20807;-73
2023/12/09 14:07:48;;;;;;;4.43;3.60;;;;;;;;;;2610608;54;20430;-72
2023/12/09 14:10:14;;;;;;;4.70;3.43;;;;;;;;;;2610191;47;20432;-72
2023/12/09 14:12:46;;;;;;;4.43;3.20;;;;;;;;;;2609985;54;20426;-72
2023/12/09 14:15:12;;;;;;;10.50;4.23;;;;;;;;;;2611814;54;20442;-75
2023/12/09 14:17:41;;;;;;;5.47;3.10;;;;;;;;;;2610149;54;20538;-77
2023/12/09 14:20:09;;;;;;;4.07;2.87;;;;;;;;;;2612444;47;20520;-76
2023/12/09 14:22:35;;;;;;;3.13;2.67;;;;;;;;;;2613039;54;20513;-77
2023/12/09 14:25:01;;;;;;;3.77;3.30;;;;;;;;;;2613381;39;20794;-77
2023/12/09 14:27:28;;;;;;;5.20;3.13;;;;;;;;;;2613090;47;20444;-77
2023/12/09 14:29:54;;;;;;;5.77;2.50;;;;;;;;;;2613250;54;20997;-76
2023/12/09 14:32:20;;;;;;;4.67;2.27;;;;;;;;;;2613169;39;20857;-74
2023/12/09 14:34:46;;;;;;;7.57;3.30;;;;;;;;;;2611831;54;20525;-76